createdAt,value
2018-05-17T00:02:09.380Z,99314.56
2018-05-17T00:04:42.897Z,99317.48
2018-05-17T00:07:16.509Z,99314.67
2018-05-17T00:09:50.072Z,99328.31
2018-05-17T00:12:23.620Z,99320.10
2018-05-17T00:14:57.324Z,99330.66
2018-05-17T00:17:31.082Z,99328.80
2018-05-17T00:20:04.653Z,99339.53
2018-05-17T00:22:38.438Z,99335.46
2018-05-17T00:25:12.332Z,99345.69
2018-05-17T00:27:46.073Z,99352.38
2018-05-17T00:30:19.668Z,99357.47
2018-05-17T00:32:53.209Z,99360.13
2018-05-17T00:35:27.027Z,99356.95
2018-05-17T00:38:00.775Z,99357.00
2018-05-17T00:40:34.344Z,99357.31
2018-05-17T00:43:07.875Z,99355.86
2018-05-17T00:45:41.449Z,99358.15
2018-05-17T00:48:15.256Z,99354.73
2018-05-17T00:50:48.810Z,99361.70
2018-05-17T00:53:31.539Z,99366.65
2018-05-17T00:56:05.101Z,99363.30
2018-05-17T00:58:38.636Z,99365.81
2018-05-17T01:01:12.199Z,99370.10
2018-05-17T01:03:45.802Z,99373.52
2018-05-17T01:06:19.536Z,99375.98
2018-05-17T01:08:53.059Z,99377.33
2018-05-17T01:11:26.651Z,99372.02
2018-05-17T01:14:00.254Z,99373.75
2018-05-17T01:16:33.840Z,99373.38
2018-05-17T01:19:07.360Z,99371.95
2018-05-17T01:21:40.927Z,99380.85
2018-05-17T01:24:14.454Z,99383.27
2018-05-17T01:26:47.988Z,99378.28
2018-05-17T01:29:21.626Z,99383.67
2018-05-17T01:31:55.240Z,99388.92
2018-05-17T01:34:28.768Z,99387.57
2018-05-17T01:37:14.202Z,99393.77
2018-05-17T01:39:47.875Z,99395.99
2018-05-17T01:42:21.477Z,99398.34
2018-05-17T01:44:55.163Z,99400.92
2018-05-17T01:47:28.804Z,99399.86
2018-05-17T01:50:02.379Z,99399.57
2018-05-17T01:52:36.107Z,99401.68
2018-05-17T01:55:09.667Z,99406.67
2018-05-17T01:57:43.332Z,99408.28
2018-05-17T02:00:17.056Z,99409.52
2018-05-17T02:02:50.584Z,99406.00
2018-05-17T02:05:24.183Z,99411.31
2018-05-17T02:07:57.864Z,99401.51
2018-05-17T02:10:31.691Z,99412.98
2018-05-17T02:13:05.241Z,99408.80
2018-05-17T02:15:39.316Z,99409.56
2018-05-17T02:18:13.063Z,99411.50
2018-05-17T02:20:46.703Z,99408.70
2018-05-17T02:23:20.359Z,99418.82
2018-05-17T02:25:54.291Z,99409.62
2018-05-17T02:28:28.115Z,99421.63
2018-05-17T02:31:01.708Z,99415.44
2018-05-17T02:33:35.312Z,99411.27
2018-05-17T02:36:08.816Z,99409.48
2018-05-17T02:38:42.459Z,99415.73
2018-05-17T02:41:16.071Z,99413.59
2018-05-17T02:43:49.692Z,99420.92
2018-05-17T02:46:23.216Z,99413.84
2018-05-17T02:48:56.836Z,99411.76
2018-05-17T02:51:30.576Z,99416.70
2018-05-17T02:54:04.247Z,99411.02
2018-05-17T02:56:37.847Z,99410.17
2018-05-17T02:59:11.454Z,99416.17
2018-05-17T03:01:44.952Z,99419.80
2018-05-17T03:04:18.633Z,99419.33
2018-05-17T03:06:52.236Z,99426.50
2018-05-17T03:09:25.947Z,99423.84
2018-05-17T03:11:59.612Z,99425.96
2018-05-17T03:14:33.204Z,99428.95
2018-05-17T03:17:06.845Z,99425.89
2018-05-17T03:19:40.511Z,99431.83
2018-05-17T03:22:14.164Z,99430.25
2018-05-17T03:24:47.839Z,99434.95
2018-05-17T03:27:21.464Z,99432.41
2018-05-17T03:29:55.059Z,99434.51
2018-05-17T03:32:28.796Z,99432.99
2018-05-17T03:35:02.464Z,99447.06
2018-05-17T03:37:36.071Z,99444.70
2018-05-17T03:40:09.744Z,99454.67
2018-05-17T03:42:43.356Z,99447.28
2018-05-17T03:45:17.128Z,99443.86
2018-05-17T03:47:50.712Z,99451.34
2018-05-17T03:50:24.328Z,99448.70
2018-05-17T03:52:58.031Z,99449.39
2018-05-17T03:55:31.659Z,99450.63
2018-05-17T03:58:05.307Z,99447.69
2018-05-17T04:00:50.889Z,99447.49
2018-05-17T04:03:36.624Z,99445.48
2018-05-17T04:06:22.611Z,99445.90
2018-05-17T04:08:56.316Z,99446.28
2018-05-17T04:11:29.944Z,99452.13
2018-05-17T04:14:03.529Z,99455.55
2018-05-17T04:16:37.184Z,99454.56
2018-05-17T04:19:10.861Z,99451.48
2018-05-17T04:21:44.460Z,99451.36
2018-05-17T04:24:18.084Z,99454.61
2018-05-17T04:26:51.692Z,99458.66
2018-05-17T04:29:25.268Z,99459.55
2018-05-17T04:31:58.935Z,99461.16
2018-05-17T04:34:32.610Z,99464.14
2018-05-17T04:37:06.138Z,99461.77
2018-05-17T04:39:39.836Z,99469.80
2018-05-17T04:42:13.508Z,99470.98
2018-05-17T04:44:47.104Z,99474.59
2018-05-17T04:47:20.959Z,99471.06
2018-05-17T04:49:54.544Z,99478.42
2018-05-17T04:52:28.363Z,99483.52
2018-05-17T04:55:02.056Z,99474.00
2018-05-17T04:57:35.840Z,99481.22
2018-05-17T05:00:09.443Z,99482.67
2018-05-17T05:02:43.060Z,99482.19
2018-05-17T05:05:16.645Z,99483.16
2018-05-17T05:07:50.403Z,99480.87
2018-05-17T05:10:24.047Z,99483.37
2018-05-17T05:12:57.663Z,99475.77
2018-05-17T05:15:31.204Z,99475.91
2018-05-17T05:18:04.760Z,99472.78
2018-05-17T05:20:38.707Z,99479.90
2018-05-17T05:23:12.244Z,99481.36
2018-05-17T05:25:45.961Z,99481.84
2018-05-17T05:28:19.524Z,99479.50
2018-05-17T05:30:53.193Z,99478.81
2018-05-17T05:33:26.791Z,99486.81
2018-05-17T05:36:00.489Z,99481.52
2018-05-17T05:38:34.072Z,99476.49
2018-05-17T05:41:07.697Z,99479.26
2018-05-17T05:43:41.307Z,99488.53
2018-05-17T05:46:14.992Z,99487.62
2018-05-17T05:48:48.710Z,99485.14
2018-05-17T05:51:22.471Z,99495.87
2018-05-17T05:53:56.100Z,99491.53
2018-05-17T05:56:29.700Z,99496.27
2018-05-17T05:59:03.332Z,99499.53
2018-05-17T06:01:37.261Z,99502.65
2018-05-17T06:04:10.914Z,99497.64
2018-05-17T06:06:44.528Z,99493.69
2018-05-17T06:09:18.140Z,99492.26
2018-05-17T06:11:51.744Z,99491.30
2018-05-17T06:14:25.368Z,99494.66
2018-05-17T06:16:59.036Z,99497.04
2018-05-17T06:19:32.652Z,99497.87
2018-05-17T06:22:06.316Z,99496.23
2018-05-17T06:24:40.075Z,99499.45
2018-05-17T06:27:14.099Z,99503.81
2018-05-17T06:29:47.695Z,99504.56
2018-05-17T06:32:21.372Z,99499.92
2018-05-17T06:34:54.881Z,99498.39
2018-05-17T06:37:28.647Z,99500.53
2018-05-17T06:40:02.369Z,99501.59
2018-05-17T06:42:36.032Z,99503.34
2018-05-17T06:45:09.603Z,99498.70
2018-05-17T06:47:43.202Z,99503.36
2018-05-17T06:50:16.888Z,99501.06
2018-05-17T06:52:50.527Z,99507.78
2018-05-17T06:55:24.289Z,99502.70
2018-05-17T06:57:57.907Z,99505.37
2018-05-17T07:00:31.522Z,99504.00
2018-05-17T07:03:05.215Z,99508.34
2018-05-17T07:05:39.451Z,99511.88
2018-05-17T07:08:13.120Z,99509.32
2018-05-17T07:10:46.629Z,99503.79
2018-05-17T07:13:20.143Z,99507.07
2018-05-17T07:15:53.884Z,99512.92
2018-05-17T07:18:27.679Z,99507.97
2018-05-17T07:21:01.087Z,99515.83
2018-05-17T07:23:34.884Z,99511.83
2018-05-17T07:26:08.568Z,99517.34
2018-05-17T07:28:42.083Z,99509.88
2018-05-17T07:31:15.734Z,99514.80
2018-05-17T07:33:49.160Z,99521.44
2018-05-17T07:36:22.920Z,99521.36
2018-05-17T07:38:56.453Z,99511.89
2018-05-17T07:41:30.043Z,99512.45
2018-05-17T07:44:03.596Z,99517.95
2018-05-17T07:46:37.201Z,99528.27
2018-05-17T07:49:11.103Z,99521.75
2018-05-17T07:51:44.779Z,99521.23
2018-05-17T07:54:18.356Z,99524.60
2018-05-17T07:56:51.933Z,99529.04
2018-05-17T07:59:25.627Z,99537.28
2018-05-17T08:01:59.251Z,99522.81
2018-05-17T08:04:32.987Z,99536.14
2018-05-17T08:07:06.811Z,99523.41
2018-05-17T08:09:40.492Z,99517.17
2018-05-17T08:12:14.216Z,99517.34
2018-05-17T08:14:47.975Z,99522.64
2018-05-17T08:17:21.640Z,99519.90
2018-05-17T08:19:55.250Z,99526.63
2018-05-17T08:22:28.796Z,99531.81
2018-05-17T08:25:02.499Z,99524.95
2018-05-17T08:27:36.311Z,99527.95
2018-05-17T08:30:09.962Z,99526.00
2018-05-17T08:32:43.637Z,99526.78
2018-05-17T08:35:17.240Z,99521.77
2018-05-17T08:37:50.808Z,99530.51
2018-05-17T08:40:24.572Z,99523.73
2018-05-17T08:42:58.216Z,99523.91
2018-05-17T08:45:31.822Z,99530.55
2018-05-17T08:48:05.643Z,99534.14
2018-05-17T08:50:39.496Z,99542.48
2018-05-17T08:53:13.156Z,99542.32
2018-05-17T08:55:47.111Z,99539.52
2018-05-17T08:58:20.803Z,99537.54
2018-05-17T09:00:54.396Z,99549.48
2018-05-17T09:03:27.986Z,99543.23
2018-05-17T09:06:01.588Z,99542.50
2018-05-17T09:08:35.163Z,99536.05
2018-05-17T09:11:08.764Z,99543.59
2018-05-17T09:13:42.345Z,99549.50
2018-05-17T09:16:16.005Z,99550.28
2018-05-17T09:18:49.843Z,99551.43
2018-05-17T09:21:23.452Z,99542.92
2018-05-17T09:23:57.202Z,99545.20
2018-05-17T09:26:30.908Z,99548.08
2018-05-17T09:29:04.647Z,99548.81
2018-05-17T09:31:38.112Z,99540.06
2018-05-17T09:34:11.755Z,99537.11
2018-05-17T09:36:45.312Z,99537.28
2018-05-17T09:39:18.940Z,99544.44
2018-05-17T09:41:52.520Z,99534.48
2018-05-17T09:44:26.017Z,99541.30
2018-05-17T09:46:59.863Z,99528.67
2018-05-17T09:49:33.343Z,99535.61
2018-05-17T09:52:07.039Z,99551.61
2018-05-17T09:54:40.592Z,99548.19
2018-05-17T09:57:14.285Z,99549.67
2018-05-17T09:59:47.824Z,99549.34
2018-05-17T10:02:21.456Z,99539.38
2018-05-17T10:04:55.137Z,99539.08
2018-05-17T10:07:28.694Z,99533.39
2018-05-17T10:10:02.241Z,99532.72
2018-05-17T10:12:35.840Z,99534.39
2018-05-17T10:15:09.508Z,99538.61
2018-05-17T10:17:43.119Z,99535.02
2018-05-17T10:20:16.831Z,99533.04
2018-05-17T10:22:50.613Z,99538.50
2018-05-17T10:25:24.156Z,99524.45
2018-05-17T10:27:57.712Z,99552.19
2018-05-17T10:30:31.348Z,99548.83
2018-05-17T10:33:04.927Z,99537.52
2018-05-17T10:35:38.661Z,99536.33
2018-05-17T10:38:12.239Z,99525.81
2018-05-17T10:40:45.875Z,99529.03
2018-05-17T10:43:19.459Z,99526.67
2018-05-17T10:48:55.921Z,99525.22
2018-05-17T10:51:29.427Z,99534.35
2018-05-17T10:54:03.005Z,99531.66
2018-05-17T10:56:36.803Z,99534.84
2018-05-17T10:59:10.391Z,99534.09
2018-05-17T11:01:43.984Z,99530.72
2018-05-17T11:04:17.592Z,99528.80
2018-05-17T11:06:51.224Z,99539.09
2018-05-17T11:09:25.060Z,99520.59
2018-05-17T11:11:58.629Z,99526.51
2018-05-17T11:14:32.440Z,99520.92
2018-05-17T11:17:06.060Z,99531.87
2018-05-17T11:19:39.664Z,99525.96
2018-05-17T11:22:13.243Z,99520.91
2018-05-17T11:24:46.927Z,99520.39
2018-05-17T11:27:20.476Z,99516.50
2018-05-17T11:29:54.207Z,99514.52
2018-05-17T11:32:27.775Z,99513.30
2018-05-17T11:35:01.585Z,99514.19
2018-05-17T11:37:35.224Z,99517.59
2018-05-17T11:40:09.012Z,99518.73
2018-05-17T11:42:42.524Z,99519.09
2018-05-17T11:45:17.582Z,99507.31
2018-05-17T11:47:51.247Z,99522.48
2018-05-17T11:50:25.048Z,99518.66
2018-05-17T11:52:58.799Z,99523.52
2018-05-17T11:55:32.384Z,99524.44
2018-05-17T11:58:06.220Z,99521.83
2018-05-17T12:00:39.955Z,99524.95
2018-05-17T12:03:13.618Z,99512.58
2018-05-17T12:05:47.373Z,99514.39
2018-05-17T12:08:21.173Z,99517.27
2018-05-17T12:10:54.924Z,99513.76
2018-05-17T12:13:28.463Z,99513.70
2018-05-17T12:16:02.172Z,99515.02
2018-05-17T12:18:35.788Z,99510.50
2018-05-17T12:21:09.499Z,99502.27
2018-05-17T12:23:43.145Z,99503.45
2018-05-17T12:26:16.695Z,99504.24
2018-05-17T12:28:50.359Z,99504.52
2018-05-17T12:31:24.096Z,99498.98
2018-05-17T12:33:57.632Z,99502.19
2018-05-17T12:36:31.444Z,99495.64
2018-05-17T12:39:06.044Z,99497.16
2018-05-17T12:41:39.649Z,99491.52
2018-05-17T12:44:13.304Z,99493.13
2018-05-17T12:46:46.938Z,99494.08
2018-05-17T12:49:20.687Z,99504.00
2018-05-17T12:51:54.240Z,99502.80
2018-05-17T12:54:27.808Z,99503.95
2018-05-17T12:57:01.336Z,99509.58
2018-05-17T12:59:35.096Z,99502.03
2018-05-17T13:02:08.664Z,99500.38
2018-05-17T13:04:42.427Z,99501.88
2018-05-17T13:07:16.260Z,99497.69
2018-05-17T13:09:49.904Z,99494.77
2018-05-17T13:12:23.779Z,99500.33
2018-05-17T13:14:57.573Z,99497.41
2018-05-17T13:17:31.214Z,99501.33
2018-05-17T13:20:04.777Z,99497.97
2018-05-17T13:22:38.322Z,99493.44
2018-05-17T13:25:12.117Z,99489.01
2018-05-17T13:27:45.753Z,99490.55
2018-05-17T13:30:19.435Z,99489.25
2018-05-17T13:32:53.048Z,99492.23
2018-05-17T13:35:26.644Z,99486.92
2018-05-17T13:38:00.173Z,99485.44
2018-05-17T13:40:33.691Z,99483.08
2018-05-17T13:43:07.249Z,99474.76
2018-05-17T13:45:40.820Z,99471.54
2018-05-17T13:48:14.526Z,99482.11
2018-05-17T13:50:48.187Z,99471.94
2018-05-17T13:53:21.899Z,99467.25
2018-05-17T13:55:55.433Z,99464.92
2018-05-17T13:58:29.044Z,99473.84
2018-05-17T14:01:02.788Z,99464.92
2018-05-17T14:03:36.365Z,99467.84
2018-05-17T14:06:10.057Z,99466.86
2018-05-17T14:08:43.588Z,99460.21
2018-05-17T14:11:17.108Z,99458.71
2018-05-17T14:13:51.073Z,99468.56
2018-05-17T14:16:24.559Z,99475.02
2018-05-17T14:18:58.240Z,99472.59
2018-05-17T14:21:31.823Z,99464.58
2018-05-17T14:24:05.579Z,99464.75
2018-05-17T14:26:39.199Z,99460.47
2018-05-17T14:29:12.860Z,99467.52
2018-05-17T14:31:46.900Z,99456.59
2018-05-17T14:34:20.383Z,99463.39
2018-05-17T14:36:54.143Z,99459.45
2018-05-17T14:39:27.804Z,99457.84
2018-05-17T14:42:01.602Z,99452.63
2018-05-17T14:44:35.286Z,99458.27
2018-05-17T14:47:08.899Z,99452.72
2018-05-17T14:49:42.655Z,99443.61
2018-05-17T14:52:16.348Z,99460.18
2018-05-17T14:54:49.913Z,99447.43
2018-05-17T14:57:23.671Z,99454.16
2018-05-17T14:59:57.433Z,99443.92
2018-05-17T15:02:31.000Z,99441.28
2018-05-17T15:05:04.523Z,99460.92
2018-05-17T15:07:38.047Z,99450.73
2018-05-17T15:10:11.738Z,99445.77
2018-05-17T15:12:45.343Z,99450.27
2018-05-17T15:15:19.096Z,99455.08
2018-05-17T15:17:52.636Z,99455.84
2018-05-17T15:20:26.275Z,99446.23
2018-05-17T15:22:59.925Z,99450.38
2018-05-17T15:25:33.472Z,99450.64
2018-05-17T15:28:07.044Z,99457.63
2018-05-17T15:30:40.800Z,99459.73
2018-05-17T15:33:14.367Z,99447.73
2018-05-17T15:35:47.997Z,99442.59
2018-05-17T15:38:21.744Z,99460.20
2018-05-17T15:40:55.295Z,99457.09
2018-05-17T15:43:28.860Z,99457.09
2018-05-17T15:46:02.607Z,99454.23
2018-05-17T15:48:36.657Z,99451.50
2018-05-17T15:51:10.311Z,99456.14
2018-05-17T15:53:44.272Z,99446.82
2018-05-17T15:56:17.941Z,99446.28
2018-05-17T15:58:51.467Z,99445.03
2018-05-17T16:01:25.041Z,99444.91
2018-05-17T16:03:58.728Z,99436.52
2018-05-17T16:06:32.379Z,99436.51
2018-05-17T16:09:06.086Z,99435.83
2018-05-17T16:11:39.773Z,99447.59
2018-05-17T16:14:13.422Z,99447.56
2018-05-17T16:16:47.153Z,99442.51
2018-05-17T16:19:20.740Z,99440.55
2018-05-17T16:21:54.483Z,99435.72
2018-05-17T16:24:28.141Z,99439.41
2018-05-17T16:27:01.829Z,99451.87
2018-05-17T16:29:35.720Z,99454.89
2018-05-17T16:32:09.381Z,99452.02
2018-05-17T16:34:43.085Z,99452.25
2018-05-17T16:37:16.712Z,99456.68
2018-05-17T16:39:50.320Z,99452.73
2018-05-17T16:42:23.922Z,99443.29
2018-05-17T16:44:57.744Z,99447.55
2018-05-17T16:47:31.425Z,99454.43
2018-05-17T16:50:04.949Z,99448.08
2018-05-17T16:52:38.678Z,99448.97
2018-05-17T16:55:12.475Z,99446.25
2018-05-17T16:57:46.259Z,99448.59
2018-05-17T17:00:20.109Z,99444.23
2018-05-17T17:02:53.835Z,99445.06
2018-05-17T17:05:27.525Z,99449.67
2018-05-17T17:08:01.245Z,99452.86
2018-05-17T17:10:34.841Z,99448.20
2018-05-17T17:13:08.503Z,99451.20
2018-05-17T17:15:42.249Z,99449.71
2018-05-17T17:18:16.029Z,99448.01
2018-05-17T17:20:49.604Z,99452.69
2018-05-17T17:23:23.281Z,99459.52
2018-05-17T17:25:57.331Z,99454.89
2018-05-17T17:28:31.242Z,99454.81
2018-05-17T17:31:04.981Z,99456.91
2018-05-17T17:33:38.948Z,99459.19
2018-05-17T17:36:12.719Z,99461.92
2018-05-17T17:38:46.347Z,99459.97
2018-05-17T17:41:19.970Z,99456.32
2018-05-17T17:43:53.645Z,99455.38
2018-05-17T17:46:27.576Z,99458.34
2018-05-17T17:49:01.340Z,99450.55
2018-05-17T17:51:34.983Z,99451.09
2018-05-17T17:54:08.769Z,99458.03
2018-05-17T17:56:42.536Z,99458.91
2018-05-17T17:59:16.149Z,99465.77
2018-05-17T18:01:49.767Z,99460.70
2018-05-17T18:04:23.406Z,99460.70
2018-05-17T18:06:56.953Z,99468.80
2018-05-17T18:09:30.771Z,99460.20
2018-05-17T18:12:04.552Z,99461.08
2018-05-17T18:14:38.162Z,99464.80
2018-05-17T18:17:11.949Z,99465.67
2018-05-17T18:19:45.682Z,99466.55
2018-05-17T18:22:19.381Z,99473.19
2018-05-17T18:24:53.133Z,99465.45
2018-05-17T18:27:26.745Z,99466.70
2018-05-17T18:30:00.516Z,99478.20
2018-05-17T18:32:34.133Z,99474.56
2018-05-17T18:35:07.864Z,99482.41
2018-05-17T18:37:41.597Z,99484.91
2018-05-17T18:40:15.301Z,99486.97
2018-05-17T18:42:49.018Z,99487.02
2018-05-17T18:45:22.731Z,99482.61
2018-05-17T18:47:56.672Z,99489.66
2018-05-17T18:50:30.299Z,99483.71
2018-05-17T18:53:03.907Z,99489.84
2018-05-17T18:55:37.779Z,99492.27
2018-05-17T18:58:11.397Z,99504.67
2018-05-17T19:00:45.085Z,99503.20
2018-05-17T19:03:18.708Z,99500.63
2018-05-17T19:05:52.377Z,99496.77
2018-05-17T19:08:26.065Z,99502.03
2018-05-17T19:10:59.831Z,99516.77
2018-05-17T19:13:33.476Z,99521.22
2018-05-17T19:16:07.229Z,99526.13
2018-05-17T19:18:40.794Z,99525.21
2018-05-17T19:21:14.501Z,99534.15
2018-05-17T19:23:48.311Z,99540.68
2018-05-17T19:26:22.065Z,99543.45
2018-05-17T19:28:55.768Z,99535.48
2018-05-17T19:31:29.499Z,99537.75
2018-05-17T19:34:03.245Z,99546.83
2018-05-17T19:36:37.261Z,99545.83
2018-05-17T19:39:10.926Z,99546.53
2018-05-17T19:41:44.620Z,99552.80
2018-05-17T19:44:18.181Z,99553.15
2018-05-17T19:46:51.869Z,99553.41
2018-05-17T19:49:25.441Z,99560.46
2018-05-17T19:51:59.217Z,99558.80
2018-05-17T19:54:33.009Z,99563.98
2018-05-17T19:57:06.757Z,99567.00
2018-05-17T19:59:40.401Z,99571.05
2018-05-17T20:02:14.137Z,99569.42
2018-05-17T20:04:47.666Z,99573.52
2018-05-17T20:07:21.425Z,99576.25
2018-05-17T20:09:55.192Z,99577.77
2018-05-17T20:12:28.896Z,99579.31
2018-05-17T20:15:02.724Z,99582.05
2018-05-17T20:17:36.295Z,99582.59
2018-05-17T20:20:10.046Z,99584.84
2018-05-17T20:22:43.824Z,99586.36
2018-05-17T20:25:17.452Z,99585.14
2018-05-17T20:27:51.184Z,99589.62
2018-05-17T20:30:25.061Z,99594.00
2018-05-17T20:32:58.688Z,99588.53
2018-05-17T20:35:32.353Z,99584.89
2018-05-17T20:38:06.042Z,99582.87
2018-05-17T20:40:39.756Z,99588.61
2018-05-17T20:43:13.349Z,99587.55
2018-05-17T20:45:47.169Z,99592.69
2018-05-17T20:48:20.877Z,99591.95
2018-05-17T20:50:54.729Z,99587.03
2018-05-17T20:53:28.405Z,99586.28
2018-05-17T20:56:02.157Z,99594.86
2018-05-17T20:58:35.758Z,99593.72
2018-05-17T21:01:09.394Z,99601.12
2018-05-17T21:03:43.009Z,99589.13
2018-05-17T21:06:16.736Z,99592.66
2018-05-17T21:08:50.564Z,99591.48
2018-05-17T21:11:24.128Z,99593.45
2018-05-17T21:13:57.708Z,99600.14
2018-05-17T21:16:31.364Z,99594.17
2018-05-17T21:19:05.011Z,99596.16
2018-05-17T21:21:38.620Z,99605.33
2018-05-17T21:24:12.252Z,99606.25
2018-05-17T21:26:45.880Z,99605.56
2018-05-17T21:29:19.416Z,99605.41
2018-05-17T21:31:53.093Z,99613.88
2018-05-17T21:34:26.753Z,99613.78
2018-05-17T21:37:00.404Z,99608.67
2018-05-17T21:39:34.100Z,99610.45
2018-05-17T21:42:07.872Z,99603.22
2018-05-17T21:44:41.500Z,99611.27
2018-05-17T21:47:15.033Z,99606.84
2018-05-17T21:49:48.615Z,99604.58
2018-05-17T21:52:22.575Z,99610.33
2018-05-17T21:54:56.281Z,99613.42
2018-05-17T21:57:29.963Z,99607.78
2018-05-17T22:00:03.655Z,99613.36
2018-05-17T22:02:37.168Z,99610.49
2018-05-17T22:05:10.835Z,99614.11
2018-05-17T22:07:44.517Z,99615.35
2018-05-17T22:10:18.171Z,99618.25
2018-05-17T22:12:51.730Z,99620.58
2018-05-17T22:15:25.359Z,99618.53
2018-05-17T22:17:58.993Z,99617.74
2018-05-17T22:20:32.644Z,99623.98
2018-05-17T22:23:06.373Z,99614.16
2018-05-17T22:25:41.032Z,99619.87
2018-05-17T22:28:14.780Z,99622.19
2018-05-17T22:30:48.320Z,99621.13
2018-05-17T22:33:21.892Z,99619.91
2018-05-17T22:35:55.568Z,99618.56
2018-05-17T22:38:29.208Z,99616.80
2018-05-17T22:41:02.919Z,99612.37
2018-05-17T22:43:36.520Z,99618.63
2018-05-17T22:46:10.194Z,99616.72
2018-05-17T22:48:44.497Z,99619.16
2018-05-17T22:51:18.044Z,99611.85
2018-05-17T22:53:51.772Z,99609.16
2018-05-17T22:56:37.227Z,99604.58
2018-05-17T22:59:10.993Z,99607.29
2018-05-17T23:01:44.639Z,99605.66
2018-05-17T23:04:18.248Z,99602.98
2018-05-17T23:06:51.812Z,99600.42
2018-05-17T23:09:25.336Z,99605.56
2018-05-17T23:11:59.068Z,99597.06
2018-05-17T23:14:32.744Z,99603.39
2018-05-17T23:17:25.299Z,99601.77
2018-05-17T23:19:58.947Z,99601.66
2018-05-17T23:22:36.316Z,99602.75
2018-05-17T23:25:09.912Z,99597.58
2018-05-17T23:27:43.573Z,99594.34
2018-05-17T23:30:17.237Z,99595.98
2018-05-17T23:32:50.861Z,99594.06
2018-05-17T23:38:36.532Z,99592.05
2018-05-17T23:41:22.111Z,99591.78
2018-05-17T23:43:55.884Z,99582.31
2018-05-17T23:46:29.487Z,99586.09
2018-05-17T23:49:03.259Z,99586.78
2018-05-17T23:51:37.148Z,99588.54
2018-05-17T23:54:10.728Z,99586.36
2018-05-17T23:56:44.311Z,99586.06
2018-05-17T23:59:17.872Z,99587.80
